Time;durP1;ratioP1;P1;durP2;ratioP2;P2;SDS_P1;SDS_P2;PMS_P1;PMS_P2;Temp;Humidity;BMP_temperature;BMP_pressure;BME280_temperature;BME280_humidity;BME280_pressure;Samples;Min_cycle;Max_cycle;Signal;HPM_P1;HPM_P2
2022/04/27 00:01:55;;;;;;;816.03;30.52;;;;;;;6.51;100.00;96992.22;4961543;28;20043;-69
2022/04/27 00:04:22;;;;;;;462.70;22.10;;;;;;;6.49;100.00;96983.66;4975414;28;20516;-69
2022/04/27 00:06:55;;;;;;;205.00;18.00;;;;;;;6.44;100.00;96988.78;4949046;28;20046;-70
2022/04/27 00:09:29;;;;;;;247.95;18.90;;;;;;;6.40;100.00;96983.06;4973668;28;20587;-70
2022/04/27 00:12:00;;;;;;;406.15;22.60;;;;;;;6.44;100.00;96980.78;4957419;28;20046;-69
2022/04/27 00:14:31;;;;;;;633.13;27.77;;;;;;;6.39;100.00;96991.25;4961249;28;20522;-70
2022/04/27 00:17:02;;;;;;;200.30;20.73;;;;;;;6.36;100.00;96987.16;4963113;28;20054;-71
2022/04/27 00:19:38;;;;;;;75.70;18.98;;;;;;;6.38;100.00;96982.47;4961949;28;20046;-70
2022/04/27 00:22:04;;;;;;;302.63;22.13;;;;;;;6.41;100.00;96984.69;4959868;28;20081;-70
2022/04/27 00:24:32;;;;;;;206.05;19.73;;;;;;;6.40;100.00;96987.56;4976653;28;20157;-70
2022/04/27 00:27:00;;;;;;;362.85;21.75;;;;;;;6.43;100.00;96990.59;4961668;28;20049;-70
2022/04/27 00:29:26;;;;;;;191.70;19.70;;;;;;;6.46;100.00;96997.38;4954279;28;20066;-70
2022/04/27 00:31:53;;;;;;;334.90;20.23;;;;;;;6.46;100.00;96989.41;4976170;28;20545;-69
2022/04/27 00:34:23;;;;;;;512.55;24.85;;;;;;;6.46;100.00;97002.69;4962390;28;20379;-69
2022/04/27 00:36:50;;;;;;;314.88;19.30;;;;;;;6.50;100.00;96995.91;4961581;28;20046;-69
2022/04/27 00:39:18;;;;;;;518.58;24.13;;;;;;;6.43;100.00;96995.94;4939069;28;20038;-69
2022/04/27 00:42:02;;;;;;;832.70;30.38;;;;;;;6.47;100.00;97000.84;4959793;28;20105;-69
2022/04/27 00:44:29;;;;;;;378.15;21.00;;;;;;;6.41;100.00;96999.84;4975029;28;20364;-71
2022/04/27 00:46:56;;;;;;;393.33;23.73;;;;;;;6.34;100.00;96997.19;4963908;28;20043;-71
2022/04/27 00:49:24;;;;;;;504.83;24.88;;;;;;;6.16;100.00;97007.66;4955029;28;20047;-70
2022/04/27 00:51:50;;;;;;;169.00;20.40;;;;;;;6.11;100.00;97000.28;4961940;28;20105;-69
2022/04/27 00:54:22;;;;;;;297.33;22.67;;;;;;;6.11;100.00;97010.94;4961992;28;20031;-69
2022/04/27 00:56:53;;;;;;;83.75;20.33;;;;;;;6.01;100.00;97007.06;4976372;28;20409;-71
2022/04/27 00:59:41;;;;;;;324.90;23.60;;;;;;;5.89;100.00;97017.44;4955697;28;20410;-69
2022/04/27 01:02:08;;;;;;;323.50;23.35;;;;;;;5.69;100.00;97019.31;4958742;28;20035;-69
2022/04/27 01:04:37;;;;;;;391.73;24.05;;;;;;;5.69;100.00;97017.47;4961021;28;20043;-70
2022/04/27 01:07:05;;;;;;;392.10;23.10;;;;;;;5.64;100.00;97011.94;4974016;28;20203;-69
2022/04/27 01:09:32;;;;;;;545.92;25.67;;;;;;;5.59;100.00;97019.69;4972462;28;20042;-70
2022/04/27 01:11:59;;;;;;;474.15;22.60;;;;;;;5.71;100.00;97028.69;4957891;28;20051;-69
2022/04/27 01:14:29;;;;;;;765.67;31.02;;;;;;;5.67;100.00;97024.78;4961280;28;20125;-70
2022/04/27 01:17:02;;;;;;;808.10;29.27;;;;;;;5.74;100.00;97027.47;4958169;28;20073;-69
2022/04/27 01:19:28;;;;;;;515.35;26.15;;;;;;;5.88;100.00;97024.59;4952199;28;20379;-70
2022/04/27 01:21:57;;;;;;;689.28;27.38;;;;;;;6.01;100.00;97023.00;4961765;28;20043;-69
2022/04/27 01:24:24;;;;;;;652.22;25.13;;;;;;;6.10;100.00;97016.44;4960676;28;20046;-69
2022/04/27 01:26:54;;;;;;;989.92;31.20;;;;;;;6.21;100.00;97022.97;4970774;28;20600;-69
2022/04/27 01:29:22;;;;;;;807.10;27.67;;;;;;;6.18;100.00;97021.56;4974195;28;20046;-71
2022/04/27 01:31:50;;;;;;;712.95;25.38;;;;;;;6.10;100.00;97011.13;4974692;28;20075;-71
2022/04/27 01:34:17;;;;;;;460.70;20.60;;;;;;;6.13;100.00;97019.50;4959803;28;20062;-70
2022/04/27 01:36:43;;;;;;;490.60;23.73;;;;;;;6.18;100.00;97010.91;4976528;28;20042;-69
2022/04/27 01:39:11;;;;;;;483.80;22.55;;;;;;;6.23;100.00;97020.94;4958387;28;20117;-70
2022/04/27 01:41:37;;;;;;;435.70;20.38;;;;;;;6.28;100.00;97019.28;4973553;28;20117;-71
2022/04/27 01:44:04;;;;;;;405.33;23.42;;;;;;;6.26;100.00;97009.88;4959999;28;20043;-70
2022/04/27 01:46:31;;;;;;;264.08;19.92;;;;;;;6.10;100.00;97019.94;4960277;28;20054;-70
2022/04/27 01:48:58;;;;;;;442.58;24.15;;;;;;;6.06;100.00;97012.56;4947492;28;20042;-69
2022/04/27 01:54:15;;;;;;;290.67;19.83;;;;;;;6.01;100.00;97025.66;4972704;28;20057;-70
2022/04/27 01:56:50;;;;;;;396.23;22.10;;;;;;;6.12;100.00;97036.47;4974511;28;20105;-70
2022/04/27 01:59:17;;;;;;;469.40;21.90;;;;;;;6.19;100.00;97025.03;4956415;28;20118;-69
2022/04/27 02:01:44;;;;;;;375.35;21.35;;;;;;;6.23;100.00;97028.91;4958836;28;20153;-69
2022/04/27 02:04:12;;;;;;;496.17;21.90;;;;;;;6.22;100.00;97029.91;4958512;28;20125;-70
2022/04/27 02:06:42;;;;;;;363.30;20.50;;;;;;;6.07;100.00;97032.78;4956325;28;20106;-70
2022/04/27 02:09:13;;;;;;;437.73;21.55;;;;;;;6.04;100.00;97023.41;4974677;28;20062;-69
2022/04/27 02:11:46;;;;;;;335.13;20.05;;;;;;;6.07;100.00;97030.97;4976012;28;20071;-69
2022/04/27 02:14:12;;;;;;;422.92;20.80;;;;;;;6.09;100.00;97025.44;4946653;28;20066;-70
2022/04/27 02:16:40;;;;;;;403.38;20.92;;;;;;;6.11;100.00;97036.69;4956657;28;20051;-69
2022/04/27 02:19:24;;;;;;;433.92;21.27;;;;;;;6.10;100.00;97030.56;4974961;28;20051;-70
2022/04/27 02:21:49;;;;;;;681.70;24.45;;;;;;;6.09;100.00;97023.59;4957987;28;20058;-69
2022/04/27 02:24:16;;;;;;;381.63;24.80;;;;;;;6.15;100.00;97029.94;4974131;28;20039;-70
2022/04/27 02:26:45;;;;;;;365.88;20.77;;;;;;;6.19;100.00;97036.47;4975492;28;20101;-69
2022/04/27 02:29:12;;;;;;;387.38;21.17;;;;;;;6.22;100.00;97028.06;4957960;28;20102;-70
2022/04/27 02:31:41;;;;;;;378.80;21.33;;;;;;;6.25;100.00;97038.31;4960780;28;20681;-71
2022/04/27 02:34:07;;;;;;;461.17;21.40;;;;;;;6.21;100.00;97029.09;4961495;28;20478;-69
2022/04/27 02:36:33;;;;;;;519.97;23.05;;;;;;;6.17;100.00;97038.53;4977746;28;20046;-70
2022/04/27 02:38:59;;;;;;;457.83;20.40;;;;;;;6.05;100.00;97040.16;4977960;28;20039;-71
2022/04/27 02:41:29;;;;;;;531.55;21.02;;;;;;;6.03;100.00;97042.22;4958287;28;20137;-69
2022/04/27 02:43:55;;;;;;;437.73;21.10;;;;;;;6.01;100.00;97049.56;4979053;28;20061;-69
2022/04/27 02:46:21;;;;;;;660.17;26.65;;;;;;;5.83;100.00;97042.97;4976402;28;20070;-69
2022/04/27 02:51:54;;;;;;;798.83;28.63;;;;;;;5.93;100.00;97053.25;4976268;28;20041;-69
2022/04/27 02:54:52;;;;;;;478.73;19.83;;;;;;;5.78;100.00;97055.25;4928656;28;20054;-69
2022/04/27 02:57:18;;;;;;;622.08;22.92;;;;;;;5.86;100.00;97058.53;4977892;28;20049;-69
2022/04/27 02:59:45;;;;;;;669.38;23.88;;;;;;;5.93;100.00;97049.78;4961110;28;20145;-69
2022/04/27 03:02:15;;;;;;;707.47;25.27;;;;;;;5.69;100.00;97052.00;4959258;28;20137;-69
2022/04/27 03:04:42;;;;;;;782.08;28.70;;;;;;;5.81;100.00;97055.66;4977068;28;20141;-70
2022/04/27 03:07:08;;;;;;;708.28;29.63;;;;;;;5.82;100.00;97049.31;4960200;28;20563;-70
2022/04/27 03:09:41;;;;;;;503.27;20.77;;;;;;;5.88;100.00;97060.97;4956325;28;20053;-69
2022/04/27 03:12:07;;;;;;;410.42;18.83;;;;;;;5.91;100.00;97062.44;4962974;28;20042;-69
2022/04/27 03:14:37;;;;;;;374.35;18.73;;;;;;;5.86;100.00;97071.00;4960961;28;20073;-70
2022/04/27 03:17:03;;;;;;;283.15;18.63;;;;;;;5.79;100.00;97065.66;4976813;28;20145;-69
2022/04/27 03:19:29;;;;;;;489.92;20.48;;;;;;;5.75;100.00;97066.28;4963155;28;20039;-69
2022/04/27 03:21:54;;;;;;;479.67;20.13;;;;;;;5.72;100.00;97062.19;4977733;28;20453;-71
2022/04/27 03:24:21;;;;;;;471.45;19.20;;;;;;;5.73;100.00;97066.47;4975808;28;20671;-69
2022/04/27 03:26:47;;;;;;;460.05;19.35;;;;;;;5.68;100.00;97062.78;4959230;28;20042;-69
2022/04/27 03:29:17;;;;;;;456.73;20.10;;;;;;;5.68;100.00;97060.97;4975169;28;20121;-71
2022/04/27 03:31:44;;;;;;;346.48;21.00;;;;;;;5.71;100.00;97070.38;4963303;28;20046;-71
2022/04/27 03:34:10;;;;;;;347.75;20.05;;;;;;;5.72;100.00;97067.50;4959273;28;20035;-69
2022/04/27 03:36:38;;;;;;;430.10;20.27;;;;;;;5.77;100.00;97067.72;4978131;28;20100;-70
2022/04/27 03:39:03;;;;;;;356.88;19.38;;;;;;;5.66;100.00;97070.97;4976138;28;20042;-69
2022/04/27 03:41:29;;;;;;;355.10;17.45;;;;;;;5.64;100.00;97077.50;4978198;28;20106;-69
2022/04/27 03:43:57;;;;;;;329.08;23.77;;;;;;;5.63;100.00;97078.53;4979134;28;20050;-70
2022/04/27 03:46:22;;;;;;;445.98;20.92;;;;;;;5.61;100.00;97081.38;4976759;28;20097;-71
2022/04/27 03:48:48;;;;;;;393.20;17.42;;;;;;;5.64;100.00;97067.69;4977680;28;20186;-69
2022/04/27 03:51:14;;;;;;;721.40;25.13;;;;;;;5.62;100.00;97077.72;4976488;28;20038;-72
2022/04/27 03:53:44;;;;;;;512.75;19.98;;;;;;;5.61;100.00;97085.88;4976597;28;20267;-71
2022/04/27 03:56:10;;;;;;;361.40;16.00;;;;;;;5.49;100.00;97083.81;4974088;28;20058;-70
2022/04/27 03:58:37;;;;;;;436.85;18.13;;;;;;;5.42;100.00;97082.97;4961216;28;20093;-70
2022/04/27 04:01:03;;;;;;;484.83;17.70;;;;;;;5.33;100.00;97081.53;4957111;28;20050;-70
2022/04/27 04:03:28;;;;;;;513.75;22.20;;;;;;;5.36;100.00;97094.38;4961757;28;20035;-71
2022/04/27 04:05:54;;;;;;;468.30;20.20;;;;;;;5.37;100.00;97084.56;4977760;28;20542;-70
2022/04/27 04:08:21;;;;;;;376.30;17.60;;;;;;;5.37;100.00;97089.88;4959868;28;20072;-72
2022/04/27 04:10:49;;;;;;;393.45;17.52;;;;;;;5.39;100.00;97093.19;4977408;28;20534;-71
2022/04/27 04:13:16;;;;;;;392.83;19.08;;;;;;;5.39;100.00;97093.19;4973669;28;20034;-71
2022/04/27 04:15:50;;;;;;;457.38;20.45;;;;;;;5.38;100.00;97080.94;4962872;28;20401;-71
2022/04/27 04:18:37;;;;;;;474.35;18.98;;;;;;;5.38;100.00;97086.25;4976975;28;20097;-71
2022/04/27 04:21:18;;;;;;;370.85;18.85;;;;;;;5.42;100.00;97090.13;4960867;28;20046;-70
2022/04/27 04:24:05;;;;;;;262.65;17.10;;;;;;;5.39;100.00;97095.84;4975168;28;20039;-70
2022/04/27 04:29:19;;;;;;;401.05;18.75;;;;;;;5.44;100.00;97106.66;4954758;28;20051;-71
2022/04/27 04:31:47;;;;;;;444.33;24.35;;;;;;;5.47;100.00;97108.91;4944384;28;20042;-70
2022/04/27 04:34:31;;;;;;;440.50;21.95;;;;;;;5.49;100.00;97104.22;4975315;28;20039;-72
2022/04/27 04:36:57;;;;;;;389.38;20.42;;;;;;;5.47;100.00;97106.28;4958651;28;20542;-71
2022/04/27 04:39:23;;;;;;;559.75;28.52;;;;;;;5.42;100.00;97108.69;4960189;28;20041;-69
2022/04/27 04:41:49;;;;;;;363.38;18.13;;;;;;;5.52;100.00;97119.75;4976547;28;20046;-70
2022/04/27 04:44:15;;;;;;;317.63;17.58;;;;;;;5.54;100.00;97117.72;4976334;28;20572;-70
2022/04/27 04:47:10;;;;;;;285.60;16.20;;;;;;;5.59;100.00;97120.56;4956613;28;20234;-69
2022/04/27 04:49:54;;;;;;;378.27;18.60;;;;;;;5.61;100.00;97115.91;4960548;28;20092;-69
2022/04/27 04:52:46;;;;;;;474.88;20.05;;;;;;;5.46;100.00;97121.38;4974483;28;20121;-72
2022/04/27 04:55:31;;;;;;;430.45;23.67;;;;;;;5.50;100.00;97127.09;4961008;28;20066;-70
2022/04/27 04:58:23;;;;;;;581.33;28.58;;;;;;;5.39;100.00;97125.03;4958771;28;20227;-69
2022/04/27 05:01:03;;;;;;;634.92;22.98;;;;;;;5.29;100.00;97133.34;4972156;28;20077;-70
2022/04/27 05:03:52;;;;;;;473.10;22.77;;;;;;;5.42;100.00;97143.19;4956946;28;20106;-71
2022/04/27 05:06:44;;;;;;;453.00;20.85;;;;;;;5.36;100.00;97131.53;4944724;28;20046;-69
2022/04/27 05:09:25;;;;;;;;;;;;;;;5.30;100.00;97145.63;4960970;28;20039;-70
2022/04/27 05:12:13;;;;;;;226.85;19.13;;;;;;;5.33;100.00;97142.56;4951487;28;19987;-69
2022/04/27 05:14:56;;;;;;;453.88;21.50;;;;;;;5.14;100.00;97138.00;4975642;28;20047;-70
2022/04/27 05:17:42;;;;;;;331.15;20.55;;;;;;;5.17;100.00;97143.72;4961589;28;20074;-72
2022/04/27 05:20:14;;;;;;;240.68;17.85;;;;;;;5.30;100.00;97151.75;4977912;28;20421;-70
2022/04/27 05:22:53;;;;;;;343.88;25.20;;;;;;;5.35;100.00;97150.31;4957775;28;20053;-69
2022/04/27 05:25:41;;;;;;;210.75;19.23;;;;;;;5.43;100.00;97158.91;4963295;28;20050;-69
2022/04/27 05:28:16;;;;;;;489.27;23.88;;;;;;;5.37;100.00;97158.88;4958170;28;20478;-70
2022/04/27 05:34:12;;;;;;;279.92;19.67;;;;;;;5.45;100.00;97177.31;4974955;28;20047;-71
2022/04/27 05:36:44;;;;;;;234.02;22.75;;;;;;;5.40;100.00;97175.25;4961602;28;20560;-69
2022/04/27 05:39:09;;;;;;;485.35;30.60;;;;;;;5.27;100.00;97176.00;4959378;28;20118;-69
2022/04/27 05:41:50;;;;;;;400.45;27.95;;;;;;;5.29;100.00;97179.31;4975322;28;20057;-69
2022/04/27 05:44:45;;;;;;;348.30;25.58;;;;;;;5.38;100.00;97181.78;4952710;28;20129;-69
2022/04/27 05:47:25;;;;;;;367.52;27.80;;;;;;;5.37;100.00;97185.44;4975949;28;20455;-71
2022/04/27 05:49:59;;;;;;;414.92;32.67;;;;;;;5.45;100.00;97193.25;4961265;28;20093;-70
2022/04/27 05:52:50;;;;;;;350.45;21.60;;;;;;;5.61;100.00;97184.94;4957695;28;20054;-69
2022/04/27 05:55:43;;;;;;;297.80;19.10;;;;;;;5.63;100.00;97190.88;4960904;28;20046;-69
2022/04/27 05:58:31;;;;;;;238.73;17.27;;;;;;;5.81;100.00;97196.41;4950539;28;20125;-69
2022/04/27 06:01:13;;;;;;;224.40;15.80;;;;;;;5.93;100.00;97198.53;4971969;28;20145;-69
2022/04/27 06:03:50;;;;;;;339.67;17.80;;;;;;;6.05;100.00;97197.72;4975018;28;20137;-69
2022/04/27 06:06:17;;;;;;;617.03;25.83;;;;;;;6.19;100.00;97203.06;4952778;28;20402;-69
2022/04/27 06:08:42;;;;;;;431.17;19.90;;;;;;;6.24;100.00;97214.75;4958763;28;20042;-70
2022/04/27 06:11:16;;;;;;;333.65;17.33;;;;;;;6.30;100.00;97216.59;4961833;28;20580;-70
2022/04/27 06:14:01;;;;;;;401.38;18.58;;;;;;;6.38;100.00;97213.75;4963987;28;20042;-70
2022/04/27 06:16:47;;;;;;;605.15;22.85;;;;;;;6.48;100.00;97210.69;4964936;28;20051;-69
2022/04/27 06:19:15;;;;;;;436.42;23.00;;;;;;;6.51;100.00;97217.41;4978356;28;20039;-69
2022/04/27 06:21:40;;;;;;;417.20;20.10;;;;;;;6.56;100.00;97230.94;4978234;28;20496;-69
2022/04/27 06:24:07;;;;;;;491.13;21.90;;;;;;;6.69;100.00;97217.63;4962926;28;20443;-69
2022/04/27 06:26:33;;;;;;;435.27;21.35;;;;;;;6.82;100.00;97228.25;4958570;28;20545;-71
2022/04/27 06:29:01;;;;;;;317.52;19.08;;;;;;;6.84;100.00;97223.53;4959517;28;20432;-71
2022/04/27 06:31:27;;;;;;;436.40;22.80;;;;;;;6.87;100.00;97220.47;4960233;28;20046;-69
2022/04/27 06:33:57;;;;;;;524.58;23.85;;;;;;;7.07;100.00;97222.28;4977662;28;20051;-69
2022/04/27 06:36:23;;;;;;;238.95;19.75;;;;;;;7.11;100.00;97223.53;4977565;28;20046;-69
2022/04/27 06:38:50;;;;;;;544.30;30.63;;;;;;;7.22;100.00;97223.69;4964712;28;20069;-69
2022/04/27 06:41:36;;;;;;;294.05;22.05;;;;;;;7.46;100.00;97218.69;4962163;28;20438;-69
2022/04/27 06:44:20;;;;;;;281.48;20.42;;;;;;;7.65;100.00;97222.34;4962884;28;20107;-69
2022/04/27 06:47:05;;;;;;;352.85;22.13;;;;;;;7.63;100.00;97214.56;4960905;28;20043;-69
2022/04/27 06:49:49;;;;;;;210.50;20.75;;;;;;;7.75;100.00;97223.50;4962513;28;20465;-70
2022/04/27 06:52:41;;;;;;;259.13;22.17;;;;;;;7.84;100.00;97221.41;4962998;28;20104;-69
2022/04/27 06:55:26;;;;;;;312.80;19.70;;;;;;;7.90;100.00;97225.91;4961572;28;20538;-69
2022/04/27 06:58:15;;;;;;;331.33;22.50;;;;;;;8.13;100.00;97224.56;4948693;28;20051;-70
2022/04/27 07:00:45;;;;;;;190.18;20.50;;;;;;;8.34;100.00;97227.72;4965206;28;20629;-70
2022/04/27 07:03:10;;;;;;;237.73;20.75;;;;;;;8.47;100.00;97232.16;4965013;28;20049;-69
2022/04/27 07:05:36;;;;;;;322.98;20.38;;;;;;;8.51;100.00;97236.03;4978787;28;20038;-69
2022/04/27 07:08:02;;;;;;;144.25;19.83;;;;;;;8.22;100.00;97244.59;4966477;28;20046;-69
2022/04/27 07:10:36;;;;;;;169.65;22.67;;;;;;;8.41;100.00;97253.56;4964852;28;20382;-69
2022/04/27 07:13:03;;;;;;;49.90;18.67;;;;;;;8.79;100.00;97253.47;4963473;28;20070;-69
2022/04/27 07:15:28;;;;;;;90.07;17.10;;;;;;;8.82;100.00;97253.03;4963504;28;20050;-71
2022/04/27 07:17:54;;;;;;;199.88;21.40;;;;;;;8.85;100.00;97255.25;4965425;28;20042;-71
2022/04/27 07:20:19;;;;;;;122.28;19.60;;;;;;;8.94;100.00;97265.44;4962030;28;20042;-69
2022/04/27 07:22:45;;;;;;;138.98;20.60;;;;;;;8.98;100.00;97259.69;4962975;28;20409;-69
2022/04/27 07:25:10;;;;;;;53.53;21.10;;;;;;;8.91;100.00;97267.75;4965159;28;20077;-69
2022/04/27 07:27:37;;;;;;;76.85;19.85;;;;;;;9.23;100.00;97262.31;4964597;28;20038;-69
2022/04/27 07:30:03;;;;;;;49.70;21.17;;;;;;;9.35;100.00;97260.56;4964928;28;20125;-72
2022/04/27 07:32:29;;;;;;;43.25;21.58;;;;;;;9.51;100.00;97262.66;4962886;28;20402;-71
2022/04/27 07:34:54;;;;;;;35.53;21.58;;;;;;;9.09;100.00;97273.13;4963600;28;20062;-69
2022/04/27 07:37:19;;;;;;;36.40;21.98;;;;;;;8.81;100.00;97270.91;4960938;28;20062;-69
2022/04/27 07:39:45;;;;;;;38.20;21.88;;;;;;;8.68;100.00;97272.84;4962427;28;20042;-71
2022/04/27 07:42:10;;;;;;;39.38;23.52;;;;;;;8.54;100.00;97280.13;4960158;28;20595;-69
2022/04/27 07:44:36;;;;;;;39.58;21.77;;;;;;;8.56;100.00;97278.91;4959884;28;20494;-69
2022/04/27 07:47:01;;;;;;;43.42;23.20;;;;;;;8.63;100.00;97281.50;4964841;28;20053;-69
2022/04/27 07:49:27;;;;;;;41.60;22.92;;;;;;;8.81;100.00;97280.78;4960392;28;20596;-69
2022/04/27 07:51:53;;;;;;;44.58;22.13;;;;;;;8.88;100.00;97281.53;4964233;28;20093;-69
2022/04/27 07:54:18;;;;;;;40.22;22.55;;;;;;;8.78;100.00;97284.66;4959265;28;20186;-72
2022/04/27 07:56:44;;;;;;;42.05;22.17;;;;;;;8.80;100.00;97273.81;4977044;28;20114;-69
2022/04/27 07:59:09;;;;;;;42.15;22.80;;;;;;;8.84;100.00;97283.81;4963618;28;20457;-69
2022/04/27 08:01:35;;;;;;;37.75;21.33;;;;;;;8.98;100.00;97291.72;4976949;28;20513;-69
2022/04/27 08:04:00;;;;;;;38.60;22.35;;;;;;;9.02;100.00;97288.38;4964012;28;20054;-69
2022/04/27 08:06:26;;;;;;;39.20;22.70;;;;;;;9.09;100.00;97283.81;4962658;28;20058;-71
2022/04/27 08:08:51;;;;;;;36.72;21.80;;;;;;;9.15;100.00;97290.13;4961785;28;20121;-70
2022/04/27 08:11:17;;;;;;;39.75;22.15;;;;;;;9.18;100.00;97293.19;4960938;28;20046;-69
2022/04/27 08:13:43;;;;;;;34.38;20.25;;;;;;;9.33;100.00;97292.00;4963384;28;20532;-69
2022/04/27 08:16:10;;;;;;;39.00;21.08;;;;;;;9.49;100.00;97297.63;4960346;28;20603;-69
2022/04/27 08:18:36;;;;;;;34.38;19.77;;;;;;;9.65;100.00;97288.22;4960751;28;20035;-71
2022/04/27 08:21:15;;;;;;;35.47;19.05;;;;;;;9.69;100.00;97297.41;4962111;28;20050;-70
2022/04/27 08:23:46;;;;;;;39.25;19.85;;;;;;;9.81;100.00;97292.16;4962201;28;20528;-69
2022/04/27 08:26:12;;;;;;;35.75;19.90;;;;;;;9.95;100.00;97287.44;4961833;28;20537;-69
2022/04/27 08:28:39;;;;;;;31.20;17.65;;;;;;;10.09;100.00;97293.44;4962501;28;20046;-70
2022/04/27 08:31:05;;;;;;;29.63;16.77;;;;;;;10.22;100.00;97288.78;4962894;28;20476;-69
2022/04/27 08:33:31;;;;;;;29.95;15.70;;;;;;;10.34;100.00;97286.13;4962362;28;20030;-70
2022/04/27 08:35:57;;;;;;;29.33;14.73;;;;;;;10.49;100.00;97291.09;4963083;28;20118;-69
2022/04/27 08:38:23;;;;;;;28.00;14.70;;;;;;;10.67;100.00;97295.59;4962772;28;20157;-69
2022/04/27 08:40:49;;;;;;;30.13;14.20;;;;;;;10.71;100.00;97294.88;4979229;28;20719;-69
2022/04/27 08:43:14;;;;;;;28.30;14.52;;;;;;;10.74;100.00;97283.75;4960670;28;20039;-70
2022/04/27 08:45:42;;;;;;;29.85;15.15;;;;;;;10.96;100.00;97301.91;4964024;28;20096;-70
2022/04/27 08:48:12;;;;;;;26.05;14.43;;;;;;;11.05;100.00;97301.38;4963773;28;20429;-70
2022/04/27 08:50:39;;;;;;;28.35;14.93;;;;;;;11.25;100.00;97293.00;4961450;28;20054;-69
2022/04/27 08:53:05;;;;;;;25.58;14.30;;;;;;;11.39;100.00;97297.09;4961561;28;20528;-69
2022/04/27 08:55:30;;;;;;;33.75;14.88;;;;;;;11.37;100.00;97301.88;4962298;28;20045;-70
2022/04/27 08:58:16;;;;;;;30.63;14.10;;;;;;;11.54;100.00;97301.16;4961839;28;20035;-69
2022/04/27 09:00:45;;;;;;;25.05;13.57;;;;;;;11.51;100.00;97304.28;4960524;28;20066;-70
2022/04/27 09:03:33;;;;;;;26.73;12.85;;;;;;;11.81;100.00;97294.28;4959999;28;20053;-69
2022/04/27 09:06:01;;;;;;;28.17;13.55;;;;;;;12.00;100.00;97305.69;4961624;28;20042;-70
2022/04/27 09:08:37;;;;;;;20.13;12.40;;;;;;;12.31;100.00;97301.75;4976589;28;20603;-71
2022/04/27 09:11:28;;;;;;;24.60;13.00;;;;;;;12.35;100.00;97297.50;4963651;28;20054;-70
2022/04/27 09:13:56;;;;;;;24.20;13.70;;;;;;;12.53;100.00;97294.66;4963325;28;20529;-71
2022/04/27 09:16:24;;;;;;;24.20;12.27;;;;;;;12.88;100.00;97301.69;4961056;28;20046;-69
2022/04/27 09:21:56;;;;;;;25.40;12.65;;;;;;;13.45;100.00;97292.69;4962752;28;20049;-69
2022/04/27 09:24:21;;;;;;;18.52;11.93;;;;;;;13.48;100.00;97298.41;4961577;28;20054;-70
2022/04/27 09:27:09;;;;;;;19.90;11.23;;;;;;;13.74;100.00;97293.38;4962120;28;20076;-70
2022/04/27 09:29:35;;;;;;;26.13;11.05;;;;;;;13.94;100.00;97296.34;4956011;28;20121;-69
2022/04/27 09:32:03;;;;;;;19.63;10.82;;;;;;;14.00;100.00;97292.63;4960885;28;20046;-69
2022/04/27 09:34:29;;;;;;;23.35;10.65;;;;;;;14.29;100.00;97290.59;4957963;28;20061;-70
2022/04/27 09:37:02;;;;;;;20.27;11.60;;;;;;;14.18;100.00;97295.03;4951080;28;20047;-69
2022/04/27 09:39:28;;;;;;;19.08;11.18;;;;;;;14.31;100.00;97290.31;4960147;28;20125;-70
2022/04/27 09:42:05;;;;;;;18.95;11.00;;;;;;;14.36;100.00;97295.78;4961208;28;20540;-70
2022/04/27 09:44:36;;;;;;;20.15;10.65;;;;;;;14.07;100.00;97285.19;4960981;28;20564;-69
2022/04/27 09:47:03;;;;;;;19.53;10.87;;;;;;;14.33;100.00;97297.09;4964085;28;20137;-70
2022/04/27 09:49:40;;;;;;;25.45;10.10;;;;;;;14.19;98.45;97291.28;4978635;28;20271;-69
2022/04/27 09:52:07;;;;;;;25.15;10.68;;;;;;;14.94;100.00;97286.13;4964775;28;20150;-70
2022/04/27 09:54:36;;;;;;;17.55;10.38;;;;;;;15.04;96.39;97291.66;4964267;28;20055;-70
2022/04/27 09:57:15;;;;;;;18.90;9.45;;;;;;;15.57;98.74;97282.59;4962143;28;20045;-69
2022/04/27 09:59:41;;;;;;;21.75;10.18;;;;;;;15.86;95.81;97288.44;4962353;28;20038;-72
2022/04/27 10:02:13;;;;;;;17.27;9.90;;;;;;;15.78;89.01;97283.56;4964555;28;20113;-71
2022/04/27 10:04:40;;;;;;;17.27;9.50;;;;;;;15.57;94.80;97289.88;4964481;28;20393;-70
2022/04/27 10:07:07;;;;;;;16.08;9.57;;;;;;;15.47;96.25;97292.50;4964161;28;20045;-70
2022/04/27 10:09:33;;;;;;;19.75;10.05;;;;;;;15.85;100.00;97286.03;4966325;28;20462;-69
2022/04/27 10:12:03;;;;;;;14.30;9.35;;;;;;;15.95;93.51;97290.66;4966023;28;20049;-69
2022/04/27 10:14:28;;;;;;;20.40;9.88;;;;;;;16.05;92.44;97279.94;4964110;28;20050;-71
2022/04/27 10:16:55;;;;;;;14.60;8.38;;;;;;;16.35;84.30;97277.34;4964708;28;20039;-70
2022/04/27 10:19:21;;;;;;;15.80;7.90;;;;;;;16.99;82.53;97278.84;4965099;28;20508;-70
2022/04/27 10:21:57;;;;;;;14.98;9.30;;;;;;;17.53;70.99;97276.38;4966794;28;20034;-69
2022/04/27 10:24:35;;;;;;;13.77;8.35;;;;;;;18.02;79.75;97270.31;4959811;28;20042;-70
2022/04/27 10:27:20;;;;;;;16.15;8.98;;;;;;;18.36;80.53;97275.06;4964236;28;20056;-71
2022/04/27 10:29:52;;;;;;;19.60;9.85;;;;;;;18.36;78.25;97272.34;4964720;28;20031;-70
2022/04/27 10:32:41;;;;;;;17.92;8.98;;;;;;;19.14;63.87;97271.59;4963337;28;20050;-69
2022/04/27 10:35:19;;;;;;;14.95;9.13;;;;;;;18.54;80.14;97274.44;4960506;28;20058;-71
2022/04/27 10:37:46;;;;;;;13.88;9.18;;;;;;;18.84;72.78;97262.63;4966051;28;20034;-70
2022/04/27 10:40:40;;;;;;;12.82;8.68;;;;;;;18.22;72.40;97271.34;4962577;28;20407;-71
2022/04/27 10:43:06;;;;;;;13.68;9.05;;;;;;;17.96;59.51;97276.84;4963973;28;20051;-69
2022/04/27 10:45:38;;;;;;;17.48;9.07;;;;;;;18.36;65.54;97275.88;4979323;28;20066;-72
2022/04/27 10:48:13;;;;;;;13.88;8.52;;;;;;;19.33;64.44;97269.81;4964524;28;20494;-70
2022/04/27 10:50:39;;;;;;;13.85;8.45;;;;;;;19.92;62.99;97276.03;4963395;28;20561;-69
2022/04/27 10:53:16;;;;;;;17.38;8.55;;;;;;;20.87;49.73;97269.69;4962139;28;20359;-70
2022/04/27 10:55:43;;;;;;;18.98;8.95;;;;;;;22.04;48.36;97259.53;4278050;28;10000650;-72
2022/04/27 10:58:15;;;;;;;18.75;8.65;;;;;;;23.32;44.91;97260.25;4960551;28;20101;-71
2022/04/27 11:00:58;;;;;;;14.35;7.97;;;;;;;23.35;36.29;97260.47;4961808;28;20055;-71
2022/04/27 11:03:25;;;;;;;15.50;7.88;;;;;;;24.76;35.14;97260.72;4960288;28;20042;-73
2022/04/27 11:05:52;;;;;;;14.40;7.80;;;;;;;24.79;31.60;97254.59;4962281;28;20034;-73
2022/04/27 11:08:27;;;;;;;14.52;7.63;;;;;;;27.50;27.32;97250.03;4959649;28;20039;-72
2022/04/27 11:10:55;;;;;;;11.27;7.38;;;;;;;28.06;27.94;97264.13;4961190;28;20340;-71
2022/04/27 11:13:26;;;;;;;15.60;7.60;;;;;;;28.59;29.96;97257.59;4961057;28;20529;-72
2022/04/27 11:15:52;;;;;;;14.13;7.78;;;;;;;30.75;26.59;97255.56;4959654;28;20149;-73
2022/04/27 11:18:18;;;;;;;11.43;6.93;;;;;;;30.39;25.89;97248.41;4962977;28;20613;-70
2022/04/27 11:20:43;;;;;;;11.77;7.20;;;;;;;30.87;27.01;97251.88;4961947;28;20042;-72
2022/04/27 11:23:22;;;;;;;16.25;9.27;;;;;;;27.97;30.20;97261.47;4959969;28;20047;-70
2022/04/27 11:25:52;;;;;;;14.75;9.10;;;;;;;27.56;32.13;97261.63;4960452;28;20038;-70
2022/04/27 11:28:18;;;;;;;18.80;10.57;;;;;;;30.34;28.42;97251.41;4959208;28;20376;-70
2022/04/27 11:30:44;;;;;;;18.48;9.80;;;;;;;27.04;31.59;97257.41;4975284;28;20059;-70
2022/04/27 11:33:11;;;;;;;16.92;9.40;;;;;;;23.81;36.95;97269.41;4960301;28;20479;-72
2022/04/27 11:35:44;;;;;;;14.38;9.52;;;;;;;22.06;40.29;97264.69;4960601;28;20482;-71
2022/04/27 11:38:10;;;;;;;17.55;9.93;;;;;;;20.74;50.79;97265.00;4958632;28;20043;-70
2022/04/27 11:40:38;;;;;;;15.05;10.07;;;;;;;19.84;56.89;97269.34;4961224;28;20464;-70
2022/04/27 11:43:04;;;;;;;18.63;10.75;;;;;;;19.64;64.41;97273.09;4961411;28;20058;-70
2022/04/27 11:45:30;;;;;;;15.98;8.95;;;;;;;19.70;64.03;97273.88;4961404;28;20053;-72